Time;durP1;ratioP1;P1;durP2;ratioP2;P2;SDS_P1;SDS_P2;PMS_P1;PMS_P2;Temp;Humidity;BMP_temperature;BMP_pressure;BME280_temperature;BME280_humidity;BME280_pressure;Samples;Min_cycle;Max_cycle;Signal;HPM_P1;HPM_P2
2023/07/02 00:01:16;;;;;;;2.00;1.90;;;;;;;20.24;79.68;95058.16;5005423;28;20226;-86
2023/07/02 00:03:43;;;;;;;2.55;2.35;;;;;;;20.33;78.78;95063.72;5006037;28;20223;-87
2023/07/02 00:06:09;;;;;;;2.42;2.22;;;;;;;20.35;79.18;95051.97;4992169;28;20207;-85
2023/07/02 00:08:36;;;;;;;2.35;2.15;;;;;;;20.39;79.32;95062.75;4992821;28;20198;-86
2023/07/02 00:11:03;;;;;;;3.03;2.15;;;;;;;20.40;79.17;95059.06;4997553;28;20508;-86
2023/07/02 00:13:30;;;;;;;1.90;1.80;;;;;;;20.39;78.91;95054.13;5002017;28;20214;-86
2023/07/02 00:15:56;;;;;;;2.15;1.95;;;;;;;20.34;79.63;95060.84;4993329;28;20207;-87
2023/07/02 00:18:23;;;;;;;2.40;2.20;;;;;;;20.33;79.21;95051.44;5000253;28;20731;-86
2023/07/02 00:20:49;;;;;;;2.40;2.20;;;;;;;20.29;79.09;95062.63;4998931;28;20207;-86
2023/07/02 00:23:16;;;;;;;2.17;2.00;;;;;;;20.21;78.91;95050.78;4991619;28;20311;-86
2023/07/02 00:25:42;;;;;;;4.55;2.50;;;;;;;20.14;79.39;95065.91;5005839;28;20190;-86
2023/07/02 00:28:10;;;;;;;2.72;2.33;;;;;;;19.97;80.83;95063.41;5007315;28;20261;-86
2023/07/02 00:30:36;;;;;;;2.47;2.28;;;;;;;19.99;80.11;95050.09;4994127;28;20210;-86
2023/07/02 00:33:03;;;;;;;2.00;1.90;;;;;;;19.97;79.74;95055.56;4992500;28;20810;-86
2023/07/02 00:35:29;;;;;;;2.70;2.33;;;;;;;20.06;79.70;95055.91;5000170;28;20203;-86
2023/07/02 00:37:56;;;;;;;4.55;2.40;;;;;;;19.95;80.54;95054.25;5001925;28;20242;-86
2023/07/02 00:40:22;;;;;;;2.50;2.17;;;;;;;19.97;79.88;95046.94;4988579;28;20230;-86
2023/07/02 00:42:49;;;;;;;2.55;2.00;;;;;;;19.95;80.30;95054.25;4989367;28;20226;-86
2023/07/02 00:45:16;;;;;;;2.10;1.90;;;;;;;19.96;80.54;95053.22;5003463;28;20206;-86
2023/07/02 00:47:43;;;;;;;2.22;1.90;;;;;;;20.01;80.14;95055.88;4991216;28;20571;-85
2023/07/02 00:50:11;;;;;;;2.83;1.85;;;;;;;20.05;80.59;95070.00;5004567;28;20231;-86
2023/07/02 00:52:37;;;;;;;2.22;2.08;;;;;;;20.06;80.22;95065.56;4997705;28;20628;-86
2023/07/02 00:55:04;;;;;;;2.30;2.10;;;;;;;20.04;81.25;95063.19;5000734;28;20197;-86
2023/07/02 00:57:32;;;;;;;2.25;2.13;;;;;;;20.05;81.09;95063.97;4991512;28;20200;-86
2023/07/02 01:00:00;;;;;;;1.70;1.60;;;;;;;20.11;80.77;95070.84;5007421;28;20202;-86
2023/07/02 01:02:29;;;;;;;1.60;1.50;;;;;;;20.09;81.77;95078.94;4998880;28;20219;-85
2023/07/02 01:04:58;;;;;;;1.60;1.48;;;;;;;20.15;81.34;95072.72;4998601;28;20199;-86
2023/07/02 01:07:24;;;;;;;1.90;1.80;;;;;;;20.14;81.89;95075.56;4996913;28;20207;-85
2023/07/02 01:09:51;;;;;;;1.60;1.50;;;;;;;20.14;81.75;95072.97;4988228;28;20195;-85
2023/07/02 01:12:18;;;;;;;1.70;1.50;;;;;;;20.11;82.23;95076.06;4994541;28;20215;-86
2023/07/02 01:14:49;;;;;;;1.40;1.30;;;;;;;20.09;82.44;95071.09;4998820;28;20215;-86
2023/07/02 01:17:19;;;;;;;1.40;1.30;;;;;;;20.12;82.42;95069.81;5005952;28;20195;-86
2023/07/02 01:19:51;;;;;;;2.35;1.50;;;;;;;20.03;83.16;95074.69;4995237;28;20309;-85
2023/07/02 01:22:18;;;;;;;1.98;1.50;;;;;;;20.08;82.90;95082.56;5000603;28;20218;-86
2023/07/02 01:24:46;;;;;;;1.60;1.50;;;;;;;20.13;82.79;95084.47;5011131;28;20214;-86
2023/07/02 01:27:14;;;;;;;1.38;1.27;;;;;;;20.18;82.60;95081.91;4997546;28;20257;-85
2023/07/02 01:29:41;;;;;;;1.60;1.50;;;;;;;20.14;83.21;95086.81;4992647;28;20202;-86
2023/07/02 01:32:09;;;;;;;1.40;1.30;;;;;;;20.14;83.61;95086.03;5006209;28;20223;-86
2023/07/02 01:34:35;;;;;;;1.33;1.20;;;;;;;20.13;83.32;95087.06;5000006;28;20638;-86
2023/07/02 01:37:04;;;;;;;1.40;1.30;;;;;;;20.09;83.60;95078.13;4998711;28;20544;-86
2023/07/02 01:39:31;;;;;;;1.30;1.20;;;;;;;19.96;84.66;95084.56;5009334;28;20227;-86
2023/07/02 01:42:08;;;;;;;1.50;1.40;;;;;;;20.00;84.45;95078.59;4994454;28;20191;-85
2023/07/02 01:44:35;;;;;;;1.55;1.40;;;;;;;20.00;84.25;95088.28;5002594;28;20222;-85
2023/07/02 01:47:01;;;;;;;2.92;1.40;;;;;;;19.95;84.77;95078.56;5002901;28;20206;-86
2023/07/02 01:49:28;;;;;;;1.50;1.40;;;;;;;19.91;84.51;95080.06;4994569;28;20195;-85
2023/07/02 01:51:56;;;;;;;1.58;1.48;;;;;;;19.91;85.10;95081.91;5007990;28;20195;-85
2023/07/02 01:54:26;;;;;;;1.45;1.35;;;;;;;19.99;84.27;95079.66;5009297;28;20215;-85
2023/07/02 01:56:52;;;;;;;1.50;1.40;;;;;;;19.98;84.46;95080.69;5009945;28;20203;-85
2023/07/02 01:59:18;;;;;;;1.63;1.40;;;;;;;19.93;84.85;95072.00;4994641;28;20235;-85
2023/07/02 02:01:45;;;;;;;1.95;1.30;;;;;;;19.99;83.96;95079.66;5007079;28;20226;-86
2023/07/02 02:04:12;;;;;;;1.40;1.30;;;;;;;19.96;84.28;95082.75;4997765;28;20257;-85
2023/07/02 02:06:40;;;;;;;2.60;1.52;;;;;;;19.97;83.91;95080.91;5000128;28;20755;-85
2023/07/02 02:09:07;;;;;;;1.60;1.50;;;;;;;19.95;84.36;95081.16;5005090;28;20206;-85
2023/07/02 02:11:38;;;;;;;1.77;1.42;;;;;;;19.86;84.84;95077.41;5007451;28;20262;-85
2023/07/02 02:14:05;;;;;;;1.50;1.40;;;;;;;19.83;85.16;95077.09;5004465;28;20219;-85
2023/07/02 02:16:33;;;;;;;1.40;1.30;;;;;;;19.88;84.48;95071.94;4999875;28;20199;-86
2023/07/02 02:19:00;;;;;;;1.60;1.50;;;;;;;19.88;84.51;95075.34;5008483;28;20226;-85
2023/07/02 02:21:26;;;;;;;1.60;1.50;;;;;;;19.89;84.44;95071.69;5000612;28;20234;-85
2023/07/02 02:23:53;;;;;;;1.55;1.45;;;;;;;19.89;84.30;95086.56;5000283;28;20207;-85
2023/07/02 02:26:21;;;;;;;1.67;1.58;;;;;;;19.88;84.31;95087.63;5001170;28;20218;-86
2023/07/02 02:28:49;;;;;;;1.40;1.30;;;;;;;19.86;84.54;95087.06;5008257;28;20222;-86
2023/07/02 02:31:15;;;;;;;1.50;1.40;;;;;;;19.91;84.23;95085.31;4991755;28;20227;-86
2023/07/02 02:33:42;;;;;;;1.75;1.40;;;;;;;19.86;84.62;95077.41;4991385;28;20302;-86
2023/07/02 02:36:08;;;;;;;1.58;1.48;;;;;;;19.86;84.44;95079.22;5000237;28;20209;-86
2023/07/02 02:38:39;;;;;;;1.52;1.42;;;;;;;19.83;84.53;95083.13;4996323;28;20231;-86
2023/07/02 02:41:08;;;;;;;2.28;1.38;;;;;;;19.81;84.51;95080.00;4990010;28;20295;-85
2023/07/02 02:43:34;;;;;;;2.63;1.52;;;;;;;19.79;84.56;95082.06;5004746;28;20221;-86
2023/07/02 02:46:02;;;;;;;1.58;1.48;;;;;;;19.88;84.05;95082.38;4998376;28;20665;-85
2023/07/02 02:48:28;;;;;;;1.55;1.45;;;;;;;19.87;84.07;95084.22;4994170;28;20207;-85
2023/07/02 02:50:55;;;;;;;1.33;1.23;;;;;;;19.86;83.70;95087.84;5005547;28;20203;-85
2023/07/02 02:53:22;;;;;;;1.33;1.23;;;;;;;19.89;84.26;95091.81;4990060;28;20239;-86
2023/07/02 02:55:48;;;;;;;1.60;1.50;;;;;;;19.79;84.44;95083.88;4998391;28;20277;-85
2023/07/02 02:58:14;;;;;;;1.65;1.38;;;;;;;19.76;84.66;95085.16;5000478;28;20210;-86
2023/07/02 03:00:45;;;;;;;1.67;1.55;;;;;;;19.82;84.57;95083.41;5009071;28;20199;-86
2023/07/02 03:03:13;;;;;;;1.65;1.55;;;;;;;19.80;84.56;95088.84;4993133;28;20215;-86
2023/07/02 03:05:39;;;;;;;1.60;1.50;;;;;;;19.81;84.94;95098.28;5001655;28;20284;-86
2023/07/02 03:08:06;;;;;;;1.65;1.55;;;;;;;19.84;84.68;95102.19;4991270;28;20199;-86
2023/07/02 03:10:32;;;;;;;1.55;1.45;;;;;;;19.86;84.96;95098.31;5003938;28;20195;-86
2023/07/02 03:12:59;;;;;;;1.80;1.50;;;;;;;19.88;85.21;95101.47;4998175;28;20639;-86
2023/07/02 03:15:25;;;;;;;1.48;1.38;;;;;;;19.93;84.39;95105.97;4999897;28;20199;-86
2023/07/02 03:17:52;;;;;;;1.60;1.50;;;;;;;19.90;86.41;95156.88;5002375;28;20768;-86
2023/07/02 03:20:19;;;;;;;4.72;1.88;;;;;;;19.43;80.56;95146.13;5004582;28;20227;-86
2023/07/02 03:22:46;;;;;;;2.53;1.90;;;;;;;19.24;81.67;95158.66;5005028;28;20218;-85
2023/07/02 03:25:12;;;;;;;2.13;1.83;;;;;;;19.05;79.60;95151.34;4995090;28;20700;-86
2023/07/02 03:27:39;;;;;;;2.20;2.10;;;;;;;18.92;79.69;95148.03;5001833;28;20199;-86
2023/07/02 03:30:07;;;;;;;3.17;2.10;;;;;;;18.80;78.66;95164.81;4998595;28;20205;-86
2023/07/02 03:32:33;;;;;;;2.75;2.10;;;;;;;18.74;79.23;95163.16;5005700;28;20230;-86
2023/07/02 03:35:01;;;;;;;1.92;1.83;;;;;;;18.77;78.48;95170.50;4992905;28;20685;-86
2023/07/02 03:37:28;;;;;;;2.67;2.30;;;;;;;18.78;79.24;95172.88;5003452;28;20326;-86
2023/07/02 03:39:55;;;;;;;2.50;2.22;;;;;;;18.67;80.36;95176.31;4989685;28;20231;-85
2023/07/02 03:42:21;;;;;;;2.40;2.20;;;;;;;18.58;79.91;95185.56;5001372;28;20222;-85
2023/07/02 03:44:48;;;;;;;2.60;2.30;;;;;;;18.54;79.54;95189.66;4992810;28;20677;-86
2023/07/02 03:47:15;;;;;;;3.08;2.03;;;;;;;18.52;78.72;95182.06;5003514;28;20196;-85
2023/07/02 03:49:42;;;;;;;2.60;2.30;;;;;;;18.57;79.08;95183.97;5001385;28;20196;-86
2023/07/02 03:52:09;;;;;;;3.28;2.47;;;;;;;18.56;79.38;95190.22;4999242;28;20597;-87
2023/07/02 03:54:36;;;;;;;3.00;2.35;;;;;;;18.55;79.71;95193.84;4994528;28;20235;-86
2023/07/02 03:57:03;;;;;;;2.50;2.10;;;;;;;18.45;80.50;95198.91;5004839;28;20205;-86
2023/07/02 03:59:29;;;;;;;2.50;2.10;;;;;;;18.41;80.55;95189.97;4994114;28;20229;-86
2023/07/02 04:01:56;;;;;;;2.45;2.25;;;;;;;18.28;81.17;95184.00;4999175;28;20214;-86
2023/07/02 04:04:22;;;;;;;2.50;2.30;;;;;;;18.30;81.71;95189.75;5002091;28;20724;-85
2023/07/02 04:06:49;;;;;;;2.47;2.15;;;;;;;18.33;81.85;95185.91;4992440;28;20207;-86
2023/07/02 04:09:15;;;;;;;4.15;2.50;;;;;;;18.30;82.72;95192.38;5007323;28;20576;-86
2023/07/02 04:11:43;;;;;;;3.15;2.40;;;;;;;18.38;81.92;95187.81;5005414;28;20206;-85
2023/07/02 04:14:09;;;;;;;2.60;2.35;;;;;;;18.38;82.21;95187.81;5001342;28;20223;-85
2023/07/02 04:16:36;;;;;;;2.58;2.13;;;;;;;18.35;82.23;95194.28;4994504;28;20216;-86
2023/07/02 04:19:02;;;;;;;3.22;2.67;;;;;;;18.30;82.06;95187.16;4992698;28;20229;-85
2023/07/02 04:21:30;;;;;;;2.50;2.30;;;;;;;18.28;82.80;95184.00;5001135;28;20227;-86
2023/07/02 04:23:56;;;;;;;2.63;2.08;;;;;;;18.34;82.55;95181.47;5003316;28;20703;-86
2023/07/02 04:26:26;;;;;;;3.38;2.42;;;;;;;18.34;82.83;95184.88;5005408;28;20839;-86
2023/07/02 04:28:54;;;;;;;4.35;2.58;;;;;;;18.29;82.82;95195.22;5004626;28;20315;-86
2023/07/02 04:31:21;;;;;;;2.20;1.98;;;;;;;18.34;82.40;95195.31;5001580;28;20226;-85
2023/07/02 04:33:47;;;;;;;3.33;2.53;;;;;;;18.33;82.86;95191.13;4991965;28;20230;-85
2023/07/02 04:36:14;;;;;;;3.40;2.50;;;;;;;18.37;83.34;95186.22;5002180;28;20199;-85
2023/07/02 04:38:40;;;;;;;2.72;2.08;;;;;;;18.40;82.60;95189.16;5004778;28;20210;-86
2023/07/02 04:41:10;;;;;;;4.05;2.08;;;;;;;18.40;83.04;95190.97;4988111;28;20208;-86
2023/07/02 04:43:37;;;;;;;2.92;2.40;;;;;;;18.43;82.02;95187.91;4997042;28;20268;-85
2023/07/02 04:46:07;;;;;;;2.78;2.33;;;;;;;18.41;82.67;95189.97;4991512;28;20211;-85
2023/07/02 04:48:34;;;;;;;3.58;2.30;;;;;;;18.38;82.71;95190.41;5006169;28;20698;-86
2023/07/02 04:51:00;;;;;;;3.35;2.28;;;;;;;18.42;81.95;95194.16;5005735;28;20207;-86
2023/07/02 04:53:27;;;;;;;2.60;2.40;;;;;;;18.44;82.48;95198.09;5005591;28;20230;-86
2023/07/02 04:55:53;;;;;;;4.13;2.40;;;;;;;18.45;82.61;95204.13;5002500;28;20206;-85
2023/07/02 04:58:19;;;;;;;2.50;2.30;;;;;;;18.44;81.39;95208.53;4999184;28;20203;-86
2023/07/02 05:00:46;;;;;;;2.33;2.00;;;;;;;18.39;81.31;95210.25;5007374;28;20704;-86
2023/07/02 05:03:14;;;;;;;2.72;2.33;;;;;;;18.41;81.93;95210.81;4999505;28;20222;-86
2023/07/02 05:05:40;;;;;;;2.65;2.22;;;;;;;18.44;82.00;95226.00;4997738;28;20206;-85
2023/07/02 05:08:07;;;;;;;2.63;2.42;;;;;;;18.38;82.27;95224.31;5006815;28;20210;-86
2023/07/02 05:10:33;;;;;;;2.85;2.13;;;;;;;18.40;82.70;95219.66;5004360;28;20198;-86
2023/07/02 05:12:59;;;;;;;2.90;2.35;;;;;;;18.40;82.54;95217.06;5007038;28;20230;-86
2023/07/02 05:15:26;;;;;;;2.83;2.47;;;;;;;18.40;82.74;95211.84;4999943;28;20203;-86
2023/07/02 05:17:53;;;;;;;3.05;2.53;;;;;;;18.35;83.97;95209.13;5007263;28;20231;-85
2023/07/02 05:20:21;;;;;;;2.90;2.42;;;;;;;18.47;82.72;95217.72;4996251;28;20266;-85
2023/07/02 05:22:47;;;;;;;2.50;2.30;;;;;;;18.52;82.41;95215.97;5005346;28;20588;-86
2023/07/02 05:25:13;;;;;;;3.88;2.38;;;;;;;18.54;82.95;95218.34;5009668;28;20232;-86
2023/07/02 05:27:40;;;;;;;2.58;2.30;;;;;;;18.52;83.21;95228.19;4999865;28;20220;-85
2023/07/02 05:30:08;;;;;;;3.70;2.13;;;;;;;18.55;82.54;95225.13;5008112;28;20562;-85
2023/07/02 05:32:35;;;;;;;3.30;2.40;;;;;;;18.56;82.50;95221.50;5008434;28;20218;-86
2023/07/02 05:35:01;;;;;;;3.15;2.30;;;;;;;18.59;82.68;95221.84;5004384;28;20203;-84
2023/07/02 05:37:29;;;;;;;2.83;2.63;;;;;;;18.58;83.15;95220.25;5000397;28;20591;-85
2023/07/02 05:39:55;;;;;;;3.00;2.67;;;;;;;18.62;82.96;95226.59;5002986;28;20617;-85
2023/07/02 05:42:22;;;;;;;2.92;2.33;;;;;;;18.64;83.28;95221.16;5009636;28;20223;-86
2023/07/02 05:44:48;;;;;;;4.78;2.50;;;;;;;18.68;82.12;95219.63;5011130;28;20202;-86
2023/07/02 05:47:14;;;;;;;3.42;2.55;;;;;;;18.65;82.92;95225.34;5011012;28;20206;-85
2023/07/02 05:49:42;;;;;;;3.78;2.58;;;;;;;18.71;82.61;95223.59;5010704;28;20245;-85
2023/07/02 05:52:11;;;;;;;2.67;2.38;;;;;;;18.64;83.17;95223.75;5010585;28;20226;-85
2023/07/02 05:54:41;;;;;;;2.67;2.45;;;;;;;18.66;82.26;95229.53;5008436;28;20202;-85
2023/07/02 05:57:07;;;;;;;2.80;2.60;;;;;;;18.68;81.35;95229.28;5009899;28;20246;-85
2023/07/02 05:59:34;;;;;;;2.90;2.70;;;;;;;18.64;81.63;95226.38;5010634;28;20219;-85
2023/07/02 06:02:01;;;;;;;2.70;2.30;;;;;;;18.70;81.36;95235.84;5007230;28;20195;-85
2023/07/02 06:04:30;;;;;;;2.92;2.63;;;;;;;18.80;80.63;95233.41;5009616;28;20222;-85
2023/07/02 06:06:57;;;;;;;2.63;2.38;;;;;;;18.85;80.23;95235.31;5009037;28;20199;-86
2023/07/02 06:09:24;;;;;;;3.38;2.40;;;;;;;18.78;80.36;95238.06;4984112;28;20628;-85
2023/07/02 06:11:51;;;;;;;5.05;2.60;;;;;;;18.82;81.43;95235.78;5002138;28;20737;-84
2023/07/02 06:14:18;;;;;;;3.03;2.65;;;;;;;18.82;81.53;95241.00;5008476;28;20238;-85
2023/07/02 06:16:44;;;;;;;2.55;2.20;;;;;;;18.80;81.97;95243.06;4995782;28;20198;-85
2023/07/02 06:19:11;;;;;;;3.33;2.35;;;;;;;18.87;81.70;95238.47;5000995;28;20202;-85
2023/07/02 06:21:37;;;;;;;5.10;2.50;;;;;;;18.94;80.77;95241.72;5003185;28;20214;-85
2023/07/02 06:24:04;;;;;;;2.67;2.40;;;;;;;18.82;79.85;95248.84;5010408;28;20227;-85
2023/07/02 06:26:31;;;;;;;3.38;2.47;;;;;;;18.81;79.93;95258.47;4993072;28;20206;-85
2023/07/02 06:28:59;;;;;;;2.38;2.15;;;;;;;18.89;80.09;95262.50;5006398;28;20206;-86
2023/07/02 06:31:26;;;;;;;2.50;2.22;;;;;;;18.92;80.65;95260.22;5001360;28;20279;-85
2023/07/02 06:33:52;;;;;;;3.35;2.67;;;;;;;18.93;81.16;95261.00;4999299;28;20210;-84
2023/07/02 06:36:20;;;;;;;3.83;2.38;;;;;;;18.97;81.42;95262.91;4994610;28;20210;-85
2023/07/02 06:38:46;;;;;;;2.47;2.28;;;;;;;18.97;82.06;95265.53;5006444;28;20199;-84
2023/07/02 06:41:12;;;;;;;2.38;2.17;;;;;;;19.01;81.75;95268.47;5001434;28;20591;-85
2023/07/02 06:43:39;;;;;;;4.55;2.38;;;;;;;19.02;81.72;95270.03;5002413;28;20223;-85
2023/07/02 06:46:07;;;;;;;2.63;2.42;;;;;;;18.97;81.85;95264.72;5008109;28;20680;-85
2023/07/02 06:48:33;;;;;;;2.50;2.30;;;;;;;18.89;83.25;95265.91;4995074;28;20687;-86
2023/07/02 06:51:00;;;;;;;3.75;2.70;;;;;;;18.82;84.68;95265.28;5001551;28;20229;-87
2023/07/02 06:53:26;;;;;;;3.13;2.60;;;;;;;18.84;82.74;95272.88;5001227;28;20227;-86
2023/07/02 06:55:53;;;;;;;3.20;2.50;;;;;;;18.83;84.66;95276.50;5001125;28;20206;-85
2023/07/02 06:58:19;;;;;;;4.20;2.70;;;;;;;18.74;87.42;95276.09;5007598;28;20209;-86
2023/07/02 07:00:46;;;;;;;4.13;2.70;;;;;;;18.74;85.61;95281.31;5004318;28;20639;-86
2023/07/02 07:03:13;;;;;;;2.90;2.70;;;;;;;18.71;84.77;95288.78;4877688;28;20256;-86
2023/07/02 07:05:40;;;;;;;2.78;2.30;;;;;;;18.66;84.45;95281.69;4937454;28;94726;-85
2023/07/02 07:08:06;;;;;;;2.50;2.30;;;;;;;18.60;85.28;95283.41;4826114;28;97050;-86
2023/07/02 07:12:20;;;;;;;2.88;2.58;;;;;;;18.51;86.80;95295.19;4969419;27;20594;-87
2023/07/02 07:15:36;;;;;;;2.90;2.40;;;;;;;18.48;87.97;95294.88;5125537;27;20554;-84
2023/07/02 07:18:03;;;;;;;2.90;2.70;;;;;;;18.46;88.09;95299.56;5085982;27;20229;-87
2023/07/02 07:20:30;;;;;;;3.75;2.80;;;;;;;18.43;87.57;95305.22;5085249;28;20582;-85
2023/07/02 07:22:57;;;;;;;3.78;2.83;;;;;;;18.39;89.39;95302.28;5079006;28;20220;-84
2023/07/02 07:25:24;;;;;;;4.45;2.80;;;;;;;18.29;89.22;95299.47;5074904;28;20192;-87
2023/07/02 07:27:50;;;;;;;3.00;2.70;;;;;;;18.22;89.80;95304.81;5075663;28;20223;-86
2023/07/02 07:30:22;;;;;;;2.90;2.70;;;;;;;18.29;89.33;95296.84;5074440;28;20200;-87
2023/07/02 07:32:50;;;;;;;3.00;2.70;;;;;;;18.32;88.65;95293.78;5076027;28;20220;-86
2023/07/02 07:35:17;;;;;;;2.95;2.55;;;;;;;18.32;88.19;95295.59;4979001;28;229341;-86
2023/07/02 07:37:44;;;;;;;2.83;2.60;;;;;;;18.25;89.62;95299.16;5073404;28;20188;-87
2023/07/02 07:40:11;;;;;;;5.57;3.00;;;;;;;18.30;88.46;95306.25;5071226;28;20197;-87
2023/07/02 07:42:37;;;;;;;3.28;2.60;;;;;;;18.37;88.56;95299.09;5073692;28;20216;-87
2023/07/02 07:45:05;;;;;;;3.80;3.10;;;;;;;18.33;90.38;95310.22;5074396;28;20189;-87
2023/07/02 07:47:31;;;;;;;3.58;2.90;;;;;;;18.28;90.30;95313.50;5075682;28;20200;-87
2023/07/02 07:49:59;;;;;;;4.38;3.15;;;;;;;18.36;90.07;95312.38;5072827;28;20208;-87
2023/07/02 07:52:26;;;;;;;2.78;2.47;;;;;;;18.32;90.03;95319.06;5065729;28;20217;-87
2023/07/02 07:54:52;;;;;;;4.43;3.15;;;;;;;18.36;91.49;95312.38;5074005;28;20768;-86
2023/07/02 07:57:19;;;;;;;2.92;2.67;;;;;;;18.42;92.33;95311.47;5070854;28;20287;-86
2023/07/02 07:59:45;;;;;;;3.20;2.78;;;;;;;18.56;92.29;95310.16;5066189;28;20223;-86
2023/07/02 08:02:12;;;;;;;3.45;2.95;;;;;;;18.64;92.61;95315.03;5069747;28;20234;-86
2023/07/02 08:04:38;;;;;;;4.57;3.00;;;;;;;18.72;92.22;95311.25;5073543;28;20561;-88
2023/07/02 08:07:08;;;;;;;5.68;2.97;;;;;;;18.75;92.49;95306.38;5074801;28;20204;-88
2023/07/02 08:09:35;;;;;;;3.30;3.00;;;;;;;18.82;92.45;95312.25;5081666;28;20228;-87
2023/07/02 08:12:03;;;;;;;3.17;2.80;;;;;;;19.01;90.66;95312.03;5069212;28;20650;-87
2023/07/02 08:14:29;;;;;;;2.90;2.60;;;;;;;19.19;90.73;95315.22;5083401;28;20220;-87
2023/07/02 08:16:58;;;;;;;3.10;2.80;;;;;;;19.31;91.62;95315.91;5071960;28;20210;-88
2023/07/02 08:19:25;;;;;;;3.13;2.80;;;;;;;19.30;92.73;95324.78;5079833;28;20199;-87
2023/07/02 08:21:51;;;;;;;3.15;2.90;;;;;;;19.22;90.00;95319.16;5073241;28;20196;-87
2023/07/02 08:24:19;;;;;;;2.70;2.50;;;;;;;19.24;89.23;95323.09;5083356;28;20224;-87
2023/07/02 08:26:47;;;;;;;2.72;2.53;;;;;;;19.15;92.12;95324.53;5065907;28;20200;-86
2023/07/02 08:29:14;;;;;;;2.45;2.25;;;;;;;19.14;90.81;95336.00;5068706;28;20197;-88
2023/07/02 08:31:41;;;;;;;2.30;2.15;;;;;;;19.11;91.12;95331.25;5069319;28;20208;-86
2023/07/02 08:34:08;;;;;;;2.92;2.67;;;;;;;19.18;91.30;95334.50;5065422;28;20221;-86
2023/07/02 08:36:34;;;;;;;2.83;2.58;;;;;;;19.25;90.28;95334.34;5067535;28;20522;-87
2023/07/02 08:39:01;;;;;;;2.45;2.25;;;;;;;19.22;89.36;95340.84;5057440;28;20299;-87
2023/07/02 08:41:31;;;;;;;2.40;2.20;;;;;;;19.16;90.51;95341.78;5053989;28;20192;-87
2023/07/02 08:43:59;;;;;;;2.47;2.20;;;;;;;19.17;90.12;95345.19;5066533;28;20220;-87
2023/07/02 08:46:34;;;;;;;2.60;2.40;;;;;;;19.13;89.97;95342.25;5058448;28;20607;-86
2023/07/02 08:49:00;;;;;;;3.13;2.83;;;;;;;19.05;89.80;95347.06;5056369;28;20192;-87
2023/07/02 08:51:27;;;;;;;13.88;12.48;;;;;;;19.06;90.78;95343.41;5055599;28;20201;-86
2023/07/02 08:53:53;;;;;;;4.97;4.47;;;;;;;18.95;90.81;95345.84;5062603;28;20311;-87
2023/07/02 08:56:20;;;;;;;2.95;2.75;;;;;;;18.88;91.60;95345.19;5062745;28;20208;-86
2023/07/02 08:58:47;;;;;;;3.00;2.70;;;;;;;18.92;92.41;95353.34;5070419;28;20229;-87
2023/07/02 09:01:15;;;;;;;2.80;2.60;;;;;;;18.92;93.98;95351.53;5058109;28;20200;-86
2023/07/02 09:03:42;;;;;;;2.65;2.22;;;;;;;18.94;91.69;95354.72;5057091;28;20209;-85
2023/07/02 09:06:09;;;;;;;2.30;2.13;;;;;;;18.93;92.57;95360.16;5065917;28;20213;-86
2023/07/02 09:08:37;;;;;;;2.63;2.42;;;;;;;18.92;92.43;95355.97;5066654;28;20197;-86
2023/07/02 09:11:08;;;;;;;2.80;2.60;;;;;;;19.00;93.15;95349.59;5060813;28;20194;-87
2023/07/02 09:13:46;;;;;;;3.10;2.40;;;;;;;19.02;92.21;95360.59;5062176;28;20224;-86
2023/07/02 09:16:24;;;;;;;3.95;2.78;;;;;;;19.02;92.77;95356.16;5055121;28;20194;-86
2023/07/02 09:18:59;;;;;;;4.82;3.50;;;;;;;18.97;92.21;95354.25;5066059;28;20200;-85
2023/07/02 09:21:27;;;;;;;6.70;3.42;;;;;;;19.01;91.65;95353.78;5055311;28;20196;-85
2023/07/02 09:23:54;;;;;;;4.75;3.92;;;;;;;19.01;92.64;95361.59;5069469;28;20891;-85
2023/07/02 09:26:21;;;;;;;18.20;16.15;;;;;;;19.02;94.27;95363.19;5064881;28;20201;-85
2023/07/02 09:28:47;;;;;;;4.18;3.88;;;;;;;19.07;92.49;95363.25;5067197;28;20251;-85
2023/07/02 09:31:13;;;;;;;2.95;2.65;;;;;;;19.00;91.96;95360.81;5050206;28;20217;-84
2023/07/02 09:33:41;;;;;;;3.28;2.97;;;;;;;18.98;92.44;95360.25;5059761;28;20212;-86
2023/07/02 09:36:08;;;;;;;3.95;2.55;;;;;;;19.03;92.11;95362.16;5056757;28;20224;-85
2023/07/02 09:38:35;;;;;;;3.65;2.80;;;;;;;19.08;93.37;95364.84;5055541;28;20197;-85
2023/07/02 09:41:01;;;;;;;3.08;2.78;;;;;;;19.06;93.69;95366.91;5067086;28;20201;-85
2023/07/02 09:43:28;;;;;;;2.45;2.25;;;;;;;19.07;93.51;95358.03;5068359;28;20224;-85
2023/07/02 09:45:56;;;;;;;2.70;2.50;;;;;;;19.08;92.22;95360.41;5057150;28;20570;-85
2023/07/02 09:48:26;;;;;;;2.25;2.05;;;;;;;19.12;91.72;95364.16;5050837;28;20240;-86
2023/07/02 09:50:55;;;;;;;3.28;2.35;;;;;;;19.18;92.41;95363.22;5060003;28;20232;-84
2023/07/02 09:53:22;;;;;;;2.60;2.40;;;;;;;19.15;92.35;95365.50;5060179;28;20867;-85
2023/07/02 09:55:48;;;;;;;2.60;2.40;;;;;;;19.18;91.45;95365.03;5077507;28;20227;-86
2023/07/02 09:58:15;;;;;;;2.40;2.20;;;;;;;19.03;90.67;95359.56;5079008;28;20204;-84
2023/07/02 10:00:43;;;;;;;2.40;2.30;;;;;;;19.02;91.22;95377.03;5059532;28;20197;-85
2023/07/02 10:03:09;;;;;;;2.65;2.45;;;;;;;18.82;90.16;95366.22;5049983;28;20221;-86
2023/07/02 10:05:36;;;;;;;2.50;2.30;;;;;;;18.75;91.37;95374.19;5060767;28;20197;-86
2023/07/02 10:08:17;;;;;;;2.80;2.60;;;;;;;18.77;91.53;95363.50;5055373;28;20219;-85
2023/07/02 10:10:44;;;;;;;4.68;2.90;;;;;;;18.86;91.37;95357.69;5053644;28;20201;-85
2023/07/02 10:13:10;;;;;;;3.72;2.45;;;;;;;19.05;89.80;95354.91;5068813;28;20609;-84
2023/07/02 10:15:39;;;;;;;2.78;2.58;;;;;;;19.40;89.00;95354.69;5066801;28;20224;-85
2023/07/02 10:18:07;;;;;;;3.00;2.72;;;;;;;19.67;89.13;95358.28;5051572;28;20284;-86
2023/07/02 10:20:34;;;;;;;7.38;6.68;;;;;;;19.80;88.67;95355.34;5049694;28;20202;-86
2023/07/02 10:23:01;;;;;;;9.20;8.20;;;;;;;19.88;87.26;95349.69;5049804;28;20213;-86
2023/07/02 10:25:31;;;;;;;8.10;7.30;;;;;;;19.95;87.71;95358.16;5061933;28;20192;-86
2023/07/02 10:28:00;;;;;;;5.38;4.88;;;;;;;20.13;87.79;95353.69;5054080;28;20237;-87
2023/07/02 10:30:34;;;;;;;4.30;3.90;;;;;;;20.32;87.94;95347.16;5056190;28;20201;-85
2023/07/02 10:33:15;;;;;;;3.78;3.25;;;;;;;20.45;83.60;95344.19;5051938;28;20220;-85
2023/07/02 10:35:44;;;;;;;3.97;3.58;;;;;;;20.47;82.80;95349.19;5057040;28;20224;-85
2023/07/02 10:38:14;;;;;;;4.13;3.80;;;;;;;20.37;80.91;95344.63;5057421;28;20197;-87
2023/07/02 10:40:42;;;;;;;4.57;4.05;;;;;;;20.24;82.17;95345.72;5059060;28;20185;-85
2023/07/02 10:43:09;;;;;;;4.63;4.22;;;;;;;20.18;81.51;95340.69;5054476;28;20592;-86
2023/07/02 10:45:37;;;;;;;5.22;4.45;;;;;;;20.16;81.60;95350.59;5055545;28;20687;-86
2023/07/02 10:48:05;;;;;;;5.32;4.82;;;;;;;20.22;82.21;95341.78;5050757;28;20994;-85
2023/07/02 10:50:32;;;;;;;5.07;4.57;;;;;;;20.38;82.44;95345.44;5054164;28;20280;-85
2023/07/02 10:52:59;;;;;;;5.05;4.55;;;;;;;20.46;82.05;95337.94;5055037;28;20244;-85
2023/07/02 10:55:28;;;;;;;6.03;4.65;;;;;;;20.73;78.08;95337.97;5055806;28;20220;-85
2023/07/02 10:58:08;;;;;;;5.18;4.68;;;;;;;21.00;76.54;95341.38;5053464;28;20899;-86
2023/07/02 11:00:44;;;;;;;5.15;4.65;;;;;;;21.08;77.73;95337.53;5054479;28;20204;-86
2023/07/02 11:03:17;;;;;;;5.70;5.03;;;;;;;21.24;78.47;95338.47;5056570;28;20257;-86
2023/07/02 11:05:43;;;;;;;7.10;4.43;;;;;;;21.66;75.42;95347.19;5056672;28;20676;-85
2023/07/02 11:08:10;;;;;;;5.22;4.72;;;;;;;21.91;73.63;95332.69;5057162;28;20193;-86
2023/07/02 11:10:37;;;;;;;5.65;5.03;;;;;;;22.09;70.91;95332.28;5058234;28;20200;-86
2023/07/02 11:13:12;;;;;;;5.70;5.15;;;;;;;22.35;71.99;95333.97;5054072;28;20220;-85
2023/07/02 11:15:41;;;;;;;7.15;6.13;;;;;;;22.26;70.56;95322.41;5058704;28;20224;-86
2023/07/02 11:18:15;;;;;;;6.80;6.10;;;;;;;22.12;70.70;95323.94;5057387;28;20205;-86
2023/07/02 11:20:42;;;;;;;8.40;5.85;;;;;;;22.10;70.60;95320.75;5051678;28;20643;-86
2023/07/02 11:23:18;;;;;;;6.45;5.85;;;;;;;22.11;69.40;95322.34;5057727;28;20225;-85
2023/07/02 11:25:55;;;;;;;7.03;6.18;;;;;;;22.17;69.79;95317.91;5056261;28;20717;-86
2023/07/02 11:28:26;;;;;;;7.70;6.90;;;;;;;22.21;70.78;95319.75;5057724;28;20233;-86
2023/07/02 11:30:52;;;;;;;7.05;6.20;;;;;;;22.32;70.62;95316.13;5056922;28;20287;-86
2023/07/02 11:33:21;;;;;;;6.95;6.25;;;;;;;22.39;71.82;95314.06;5057803;28;20212;-86
2023/07/02 11:35:47;;;;;;;7.70;7.00;;;;;;;22.46;68.56;95313.84;5054924;28;20213;-86
2023/07/02 11:38:14;;;;;;;8.68;7.15;;;;;;;22.59;66.85;95302.84;5055672;28;20201;-85